createdAt,value
2022-11-23T00:02:15.617Z,99776.81
2022-11-23T00:04:42.069Z,99788.69
2022-11-23T00:07:08.574Z,99779.78
2022-11-23T00:09:35.005Z,99772.00
2022-11-23T00:12:01.438Z,99782.44
2022-11-23T00:14:27.847Z,99794.97
2022-11-23T00:16:54.272Z,99781.94
2022-11-23T00:19:20.705Z,99782.47
2022-11-23T00:21:47.164Z,99777.19
2022-11-23T00:24:13.709Z,99771.63
2022-11-23T00:26:40.210Z,99765.63
2022-11-23T00:29:06.954Z,99770.66
2022-11-23T00:31:33.351Z,99773.06
2022-11-23T00:33:59.808Z,99771.25
2022-11-23T00:36:27.521Z,99773.75
2022-11-23T00:38:54.667Z,99774.47
2022-11-23T00:41:24.237Z,99774.47
2022-11-23T00:43:50.635Z,99762.59
2022-11-23T00:46:24.740Z,99779.47
2022-11-23T00:48:53.953Z,99778.63
2022-11-23T00:51:25.896Z,99777.53
2022-11-23T00:53:53.148Z,99765.41
2022-11-23T00:56:20.515Z,99771.41
2022-11-23T00:58:51.283Z,99769.06
2022-11-23T01:01:19.981Z,99775.47
2022-11-23T01:03:49.787Z,99779.06
2022-11-23T01:06:24.128Z,99776.56
2022-11-23T01:08:58.862Z,99777.00
2022-11-23T01:11:27.617Z,99765.72
2022-11-23T01:13:54.875Z,99771.59
2022-11-23T01:16:29.863Z,99778.56
2022-11-23T01:19:01.574Z,99774.94
2022-11-23T01:21:29.427Z,99775.78
2022-11-23T01:23:56.699Z,99769.53
2022-11-23T01:26:23.771Z,99769.78
2022-11-23T01:28:50.505Z,99762.81
2022-11-23T01:31:22.360Z,99765.06
2022-11-23T01:33:55.860Z,99774.81
2022-11-23T01:36:25.729Z,99777.28
2022-11-23T01:38:52.528Z,99780.94
2022-11-23T01:41:24.977Z,99778.13
2022-11-23T01:43:52.133Z,99782.47
2022-11-23T01:46:19.095Z,99784.41
2022-11-23T01:49:07.121Z,99778.56
2022-11-23T01:51:39.517Z,99780.50
2022-11-23T01:54:17.772Z,99776.78
2022-11-23T01:56:47.926Z,99781.22
2022-11-23T01:59:19.205Z,99782.91
2022-11-23T02:01:45.731Z,99781.94
2022-11-23T02:04:17.715Z,99775.66
2022-11-23T02:06:47.375Z,99788.63
2022-11-23T02:09:16.087Z,99779.72
2022-11-23T02:11:42.612Z,99788.38
2022-11-23T02:14:10.024Z,99782.09
2022-11-23T02:16:38.601Z,99777.63
2022-11-23T02:19:15.430Z,99777.34
2022-11-23T02:21:43.555Z,99778.19
2022-11-23T02:24:20.635Z,99774.59
2022-11-23T02:26:47.208Z,99765.94
2022-11-23T02:29:20.559Z,99765.69
2022-11-23T02:31:47.118Z,99772.78
2022-11-23T02:34:13.576Z,99763.16
2022-11-23T02:36:44.655Z,99767.63
2022-11-23T02:39:27.408Z,99767.75
2022-11-23T02:41:55.559Z,99772.34
2022-11-23T02:44:30.751Z,99765.38
2022-11-23T02:46:58.179Z,99756.44
2022-11-23T02:49:24.897Z,99771.78
2022-11-23T02:51:51.970Z,99769.16
2022-11-23T02:54:18.599Z,99774.56
2022-11-23T02:56:45.045Z,99756.44
2022-11-23T02:59:11.522Z,99763.84
2022-11-23T03:01:40.142Z,99767.47
2022-11-23T03:04:07.648Z,99763.16
2022-11-23T03:06:34.043Z,99761.34
2022-11-23T03:09:00.456Z,99770.13
2022-11-23T03:11:27.057Z,99766.91
2022-11-23T03:13:53.464Z,99769.28
2022-11-23T03:16:20.065Z,99767.59
2022-11-23T03:18:46.444Z,99771.78
2022-11-23T03:21:12.891Z,99763.16
2022-11-23T03:23:39.310Z,99779.72
2022-11-23T03:26:11.311Z,99758.13
2022-11-23T03:28:39.334Z,99772.75
2022-11-23T03:31:05.944Z,99771.78
2022-11-23T03:33:32.662Z,99768.19
2022-11-23T03:35:59.096Z,99774.00
2022-11-23T03:38:27.357Z,99775.81
2022-11-23T03:40:53.813Z,99775.16
2022-11-23T03:43:21.323Z,99764.25
2022-11-23T03:45:48.214Z,99774.84
2022-11-23T03:48:15.328Z,99766.06
2022-11-23T03:50:45.099Z,99765.94
2022-11-23T03:53:12.553Z,99767.75
2022-11-23T03:55:38.996Z,99772.91
2022-11-23T03:58:05.864Z,99766.78
2022-11-23T04:00:32.286Z,99774.59
2022-11-23T04:02:58.708Z,99771.94
2022-11-23T04:05:25.241Z,99764.97
2022-11-23T04:07:51.696Z,99762.75
2022-11-23T04:10:19.494Z,99772.25
2022-11-23T04:12:49.934Z,99759.84
2022-11-23T04:15:16.599Z,99764.84
2022-11-23T04:17:43.463Z,99768.50
2022-11-23T04:20:10.241Z,99768.19
2022-11-23T04:22:36.687Z,99767.22
2022-11-23T04:25:03.288Z,99773.94
2022-11-23T04:27:29.689Z,99779.94
2022-11-23T04:29:56.092Z,99775.47
2022-11-23T04:32:22.542Z,99774.38
2022-11-23T04:34:49.044Z,99775.19
2022-11-23T04:37:15.508Z,99768.94
2022-11-23T04:39:42.197Z,99769.63
2022-11-23T04:42:14.008Z,99768.63
2022-11-23T04:44:40.397Z,99775.75
2022-11-23T04:47:07.647Z,99772.00
2022-11-23T04:49:34.304Z,99766.56
2022-11-23T04:52:00.936Z,99771.84
2022-11-23T04:54:27.333Z,99784.13
2022-11-23T04:56:54.234Z,99775.09
2022-11-23T04:59:20.785Z,99764.66
2022-11-23T05:01:47.190Z,99774.84
2022-11-23T05:04:17.637Z,99764.66
2022-11-23T05:06:44.578Z,99777.03
2022-11-23T05:09:11.278Z,99773.44
2022-11-23T05:11:37.672Z,99777.75
2022-11-23T05:14:04.150Z,99769.66
2022-11-23T05:16:30.583Z,99775.66
2022-11-23T05:18:57.395Z,99767.72
2022-11-23T05:21:23.793Z,99765.91
2022-11-23T05:23:50.213Z,99775.53
2022-11-23T05:26:16.599Z,99760.34
2022-11-23T05:28:42.984Z,99774.44
2022-11-23T05:31:09.753Z,99769.13
2022-11-23T05:33:36.512Z,99774.44
2022-11-23T05:36:03.004Z,99771.78
2022-11-23T05:38:29.427Z,99770.94
2022-11-23T05:40:57.271Z,99776.09
2022-11-23T05:43:23.683Z,99773.59
2022-11-23T05:45:50.130Z,99770.94
2022-11-23T05:48:16.712Z,99776.38
2022-11-23T05:50:43.145Z,99781.41
2022-11-23T05:53:10.028Z,99778.88
2022-11-23T05:55:36.567Z,99772.75
2022-11-23T05:58:03.768Z,99774.28
2022-11-23T06:00:30.342Z,99779.44
2022-11-23T06:03:03.788Z,99781.09
2022-11-23T06:05:30.288Z,99775.97
2022-11-23T06:07:57.178Z,99775.00
2022-11-23T06:10:23.609Z,99774.16
2022-11-23T06:12:50.064Z,99774.16
2022-11-23T06:15:17.994Z,99774.00
2022-11-23T06:17:44.561Z,99770.50
2022-11-23T06:20:11.329Z,99777.66
2022-11-23T06:22:37.745Z,99779.97
2022-11-23T06:25:04.477Z,99783.34
2022-11-23T06:27:30.889Z,99774.69
2022-11-23T06:29:57.673Z,99792.38
2022-11-23T06:32:24.106Z,99786.25
2022-11-23T06:34:50.483Z,99779.72
2022-11-23T06:37:16.931Z,99793.53
2022-11-23T06:39:43.368Z,99784.19
2022-11-23T06:42:37.890Z,99795.47
2022-11-23T06:44:56.291Z,99790.88
2022-11-23T06:47:26.276Z,99797.16
2022-11-23T06:49:53.281Z,99786.69
2022-11-23T06:52:19.927Z,99793.66
2022-11-23T06:54:46.442Z,99799.63
2022-11-23T06:57:12.928Z,99797.81
2022-11-23T06:59:43.298Z,99801.19
2022-11-23T07:02:14.544Z,99802.16
2022-11-23T07:04:43.429Z,99811.50
2022-11-23T07:07:09.958Z,99808.72
2022-11-23T07:09:36.481Z,99820.97
2022-11-23T07:12:03.015Z,99821.56
2022-11-23T07:14:29.471Z,99817.78
2022-11-23T07:16:58.413Z,99824.75
2022-11-23T07:19:24.920Z,99816.53
2022-11-23T07:21:51.348Z,99818.91
2022-11-23T07:24:18.013Z,99819.31
2022-11-23T07:26:44.417Z,99822.53
2022-11-23T07:29:11.170Z,99826.84
2022-11-23T07:31:37.839Z,99827.41
2022-11-23T07:34:05.117Z,99826.28
2022-11-23T07:36:31.622Z,99837.44
2022-11-23T07:38:58.404Z,99832.72
2022-11-23T07:41:27.722Z,99831.44
2022-11-23T07:43:54.623Z,99838.28
2022-11-23T07:46:21.525Z,99823.22
2022-11-23T07:48:48.077Z,99826.41
2022-11-23T07:51:16.090Z,99830.47
2022-11-23T07:53:42.475Z,99840.75
2022-11-23T07:56:08.903Z,99833.50
2022-11-23T07:58:35.306Z,99835.88
2022-11-23T08:01:01.660Z,99838.41
2022-11-23T08:03:29.067Z,99846.91
2022-11-23T08:05:56.294Z,99843.28
2022-11-23T08:08:22.864Z,99848.13
2022-11-23T08:10:53.270Z,99838.50
2022-11-23T08:13:20.528Z,99847.47
2022-11-23T08:15:53.390Z,99849.41
2022-11-23T08:18:21.496Z,99838.22
2022-11-23T08:20:47.990Z,99852.34
2022-11-23T08:23:14.391Z,99854.66
2022-11-23T08:25:43.449Z,99849.09
2022-11-23T08:28:11.640Z,99854.78
2022-11-23T08:30:38.976Z,99851.75
2022-11-23T08:33:06.778Z,99856.72
2022-11-23T08:35:37.430Z,99850.31
2022-11-23T08:38:05.066Z,99858.69
2022-11-23T08:40:32.148Z,99851.97
2022-11-23T08:42:58.822Z,99855.97
2022-11-23T08:45:25.699Z,99854.56
2022-11-23T08:47:53.173Z,99844.09
2022-11-23T08:50:20.722Z,99855.50
2022-11-23T08:52:47.185Z,99845.34
2022-11-23T08:55:13.887Z,99861.09
2022-11-23T08:57:40.353Z,99862.34
2022-11-23T09:00:07.618Z,99865.38
2022-11-23T09:02:34.140Z,99863.25
2022-11-23T09:05:00.712Z,99857.66
2022-11-23T09:07:27.480Z,99859.56
2022-11-23T09:09:54.015Z,99858.28
2022-11-23T09:12:20.396Z,99857.56
2022-11-23T09:14:46.807Z,99862.56
2022-11-23T09:17:13.282Z,99861.13
2022-11-23T09:19:39.721Z,99868.53
2022-11-23T09:22:06.265Z,99861.06
2022-11-23T09:24:33.000Z,99853.09
2022-11-23T09:26:59.666Z,99869.81
2022-11-23T09:29:26.621Z,99873.84
2022-11-23T09:31:53.128Z,99869.06
2022-11-23T09:34:19.950Z,99878.31
2022-11-23T09:36:46.867Z,99865.00
2022-11-23T09:39:13.275Z,99875.72
2022-11-23T09:42:19.471Z,99875.81
2022-11-23T09:45:00.839Z,99879.16
2022-11-23T09:47:55.131Z,99876.16
2022-11-23T09:50:27.257Z,99892.66
2022-11-23T09:52:54.239Z,99888.09
2022-11-23T09:55:42.200Z,99888.06
2022-11-23T09:58:15.550Z,99890.03
2022-11-23T10:00:53.708Z,99884.22
2022-11-23T10:03:20.276Z,99894.16
2022-11-23T10:06:01.645Z,99891.66
2022-11-23T10:08:46.048Z,99884.00
2022-11-23T10:11:30.147Z,99885.56
2022-11-23T10:14:31.929Z,99891.22
2022-11-23T10:17:50.999Z,99887.38
2022-11-23T10:20:36.072Z,99890.69
2022-11-23T10:23:07.529Z,99885.34
2022-11-23T10:25:42.648Z,99897.38
2022-11-23T10:28:18.642Z,99894.03
2022-11-23T10:30:56.010Z,99886.56
2022-11-23T10:33:33.968Z,99887.94
2022-11-23T10:36:00.397Z,99886.94
2022-11-23T10:38:27.961Z,99880.63
2022-11-23T10:41:11.098Z,99888.47
2022-11-23T10:44:12.426Z,99884.34
2022-11-23T10:46:40.569Z,99887.16
2022-11-23T10:49:20.948Z,99887.03
2022-11-23T10:51:51.750Z,99886.72
2022-11-23T10:54:25.204Z,99884.03
2022-11-23T10:56:53.650Z,99889.38
2022-11-23T10:59:40.403Z,99895.34
2022-11-23T11:02:22.616Z,99892.19
2022-11-23T11:04:55.829Z,99887.84
2022-11-23T11:07:28.491Z,99891.84
2022-11-23T11:10:03.257Z,99903.03
2022-11-23T11:12:33.102Z,99886.88
2022-11-23T11:15:16.239Z,99891.56
2022-11-23T11:17:42.930Z,99890.88
2022-11-23T11:20:31.557Z,99888.59
2022-11-23T11:23:16.473Z,99885.25
2022-11-23T11:25:43.080Z,99884.56
2022-11-23T11:28:23.719Z,99883.06
2022-11-23T11:31:07.908Z,99890.91
2022-11-23T11:33:53.541Z,99889.41
2022-11-23T11:36:21.898Z,99888.75
2022-11-23T11:39:17.350Z,99882.75
2022-11-23T11:41:44.812Z,99884.28
2022-11-23T11:44:20.499Z,99873.78
2022-11-23T11:47:10.408Z,99888.94
2022-11-23T11:49:48.168Z,99889.44
2022-11-23T11:52:21.968Z,99889.59
2022-11-23T11:55:01.458Z,99876.28
2022-11-23T11:57:44.536Z,99887.25
2022-11-23T12:00:15.403Z,99880.09
2022-11-23T12:03:00.692Z,99884.09
2022-11-23T12:05:36.509Z,99882.44
2022-11-23T12:08:02.938Z,99880.78
2022-11-23T12:10:41.766Z,99878.09
2022-11-23T12:13:21.032Z,99877.59
2022-11-23T12:15:57.929Z,99875.91
2022-11-23T12:18:41.092Z,99871.09
2022-11-23T12:21:44.882Z,99874.78
2022-11-23T12:24:31.885Z,99875.78
2022-11-23T12:27:32.452Z,99866.94
2022-11-23T12:30:13.082Z,99869.94
2022-11-23T12:32:45.497Z,99867.63
2022-11-23T12:35:31.173Z,99873.44
2022-11-23T12:38:14.970Z,99863.25
2022-11-23T12:40:44.491Z,99869.44
2022-11-23T12:43:46.615Z,99861.28
2022-11-23T12:46:31.516Z,99865.13
2022-11-23T12:49:16.612Z,99862.28
2022-11-23T12:52:07.931Z,99871.44
2022-11-23T12:54:54.478Z,99869.94
2022-11-23T12:57:27.053Z,99870.44
2022-11-23T13:00:00.641Z,99865.59
2022-11-23T13:02:42.254Z,99868.59
2022-11-23T13:05:29.284Z,99854.25
2022-11-23T13:08:33.361Z,99867.25
2022-11-23T13:11:05.707Z,99870.09
2022-11-23T13:13:49.222Z,99870.91
2022-11-23T13:16:45.213Z,99869.25
2022-11-23T13:19:14.738Z,99864.91
2022-11-23T13:21:44.622Z,99868.25
2022-11-23T13:24:32.608Z,99866.91
2022-11-23T13:27:14.820Z,99874.94
2022-11-23T13:29:50.299Z,99874.94
2022-11-23T13:32:59.779Z,99874.06
2022-11-23T13:35:28.937Z,99872.06
2022-11-23T13:37:58.216Z,99873.56
2022-11-23T13:40:32.154Z,99872.56
2022-11-23T13:43:24.293Z,99881.91
2022-11-23T13:46:11.408Z,99870.38
2022-11-23T13:48:58.004Z,99867.88
2022-11-23T13:51:35.408Z,99865.03
2022-11-23T13:54:05.179Z,99862.53
2022-11-23T13:56:38.832Z,99863.03
2022-11-23T13:59:29.125Z,99864.19
2022-11-23T14:02:07.574Z,99855.81
2022-11-23T14:04:38.668Z,99859.88
2022-11-23T14:07:15.898Z,99860.03
2022-11-23T14:09:42.317Z,99860.53
2022-11-23T14:12:11.505Z,99861.72
2022-11-23T14:14:53.016Z,99857.53
2022-11-23T14:17:22.461Z,99855.56
2022-11-23T14:20:00.985Z,99855.91
2022-11-23T14:22:39.585Z,99858.41
2022-11-23T14:25:28.150Z,99853.41
2022-11-23T14:28:07.304Z,99857.09
2022-11-23T14:30:49.454Z,99852.91
2022-11-23T14:33:26.979Z,99865.13
2022-11-23T14:36:25.848Z,99864.44
2022-11-23T14:39:20.261Z,99862.78
2022-11-23T14:41:52.386Z,99858.94
2022-11-23T14:44:26.002Z,99857.94
2022-11-23T14:47:06.877Z,99858.78
2022-11-23T14:49:33.572Z,99863.59
2022-11-23T14:52:03.129Z,99861.09
2022-11-23T14:54:31.016Z,99851.63
2022-11-23T14:57:01.836Z,99841.75
2022-11-23T14:59:38.699Z,99852.59
2022-11-23T15:02:17.006Z,99851.09
2022-11-23T15:05:11.354Z,99855.78
2022-11-23T15:08:14.831Z,99855.06
2022-11-23T15:11:07.395Z,99860.22
2022-11-23T15:13:46.410Z,99863.63
2022-11-23T15:16:14.589Z,99860.59
2022-11-23T15:18:42.545Z,99857.72
2022-11-23T15:21:12.344Z,99862.69
2022-11-23T15:23:48.409Z,99862.81
2022-11-23T15:26:47.359Z,99863.94
2022-11-23T15:29:37.766Z,99867.53
2022-11-23T15:32:30.613Z,99863.31
2022-11-23T15:35:04.896Z,99871.44
2022-11-23T15:37:32.863Z,99869.84
2022-11-23T15:40:00.184Z,99855.28
2022-11-23T15:42:27.555Z,99857.06
2022-11-23T15:44:55.234Z,99868.41
2022-11-23T15:47:27.274Z,99871.66
2022-11-23T15:50:01.344Z,99874.94
2022-11-23T15:52:33.109Z,99878.38
2022-11-23T15:55:08.900Z,99885.28
2022-11-23T15:57:37.900Z,99899.34
2022-11-23T16:00:05.976Z,99900.09
2022-11-23T16:02:32.701Z,99898.19
2022-11-23T16:05:22.385Z,99901.31
2022-11-23T16:07:53.321Z,99913.53
2022-11-23T16:10:26.660Z,99912.72
2022-11-23T16:13:01.389Z,99923.66
2022-11-23T16:15:34.010Z,99911.94
2022-11-23T16:18:01.513Z,99907.28
2022-11-23T16:20:29.423Z,99922.09
2022-11-23T16:22:57.199Z,99916.38
2022-11-23T16:25:33.025Z,99930.94
2022-11-23T16:27:59.445Z,99931.38
2022-11-23T16:30:40.692Z,99932.66
2022-11-23T16:33:14.625Z,99927.78
2022-11-23T16:35:41.335Z,99931.03
2022-11-23T16:38:08.128Z,99931.03
2022-11-23T16:40:34.647Z,99933.00
2022-11-23T16:43:01.196Z,99935.94
2022-11-23T16:45:27.649Z,99936.63
2022-11-23T16:48:02.543Z,99943.75
2022-11-23T16:50:31.405Z,99935.22
2022-11-23T16:53:02.067Z,99919.34
2022-11-23T16:55:28.498Z,99930.34
2022-11-23T16:57:56.212Z,99919.78
2022-11-23T17:00:23.288Z,99927.59
2022-11-23T17:02:49.782Z,99919.34
2022-11-23T17:05:18.424Z,99904.31
2022-11-23T17:07:45.059Z,99916.31
2022-11-23T17:10:13.542Z,99909.63
2022-11-23T17:12:41.866Z,99907.38
2022-11-23T17:15:11.610Z,99909.78
2022-11-23T17:17:38.035Z,99909.09
2022-11-23T17:20:05.045Z,99916.50
2022-11-23T17:22:31.545Z,99914.97
2022-11-23T17:24:58.125Z,99916.66
2022-11-23T17:27:25.282Z,99916.09
2022-11-23T17:29:57.176Z,99935.22
2022-11-23T17:32:23.654Z,99938.16
2022-11-23T17:34:50.035Z,99937.31
2022-11-23T17:37:23.927Z,99939.84
2022-11-23T17:39:50.939Z,99938.31
2022-11-23T17:42:17.700Z,99945.41
2022-11-23T17:44:44.137Z,99946.25
2022-11-23T17:47:38.040Z,99946.13
2022-11-23T17:50:06.998Z,99942.19
2022-11-23T17:52:33.550Z,99946.84
2022-11-23T17:54:59.946Z,99938.72
2022-11-23T17:57:27.429Z,99943.19
2022-11-23T17:59:57.370Z,99959.41
2022-11-23T18:02:25.681Z,99965.69
2022-11-23T18:04:52.092Z,99964.00
2022-11-23T18:07:18.713Z,99970.00
2022-11-23T18:09:45.188Z,99967.88
2022-11-23T18:12:11.642Z,99980.19
2022-11-23T18:14:38.569Z,99977.38
2022-11-23T18:17:04.993Z,99975.56
2022-11-23T18:19:31.838Z,99984.38
2022-11-23T18:21:58.507Z,99979.91
2022-11-23T18:24:24.902Z,99994.00
2022-11-23T18:26:51.310Z,99973.50
2022-11-23T18:29:17.710Z,99991.22
2022-11-23T18:31:44.284Z,99984.22
2022-11-23T18:34:10.866Z,99985.22
2022-11-23T18:36:37.383Z,99988.44
2022-11-23T18:39:03.964Z,99989.53
2022-11-23T18:41:30.486Z,99994.00
2022-11-23T18:43:59.759Z,100000.28
2022-11-23T18:46:26.210Z,99995.94
2022-11-23T18:48:53.417Z,100012.97
2022-11-23T18:51:19.880Z,100003.78
2022-11-23T18:53:48.042Z,100009.09
2022-11-23T18:56:14.645Z,100018.03
2022-11-23T18:58:42.306Z,100007.53
2022-11-23T19:01:14.176Z,100015.63
2022-11-23T19:03:42.257Z,100018.56
2022-11-23T19:06:13.339Z,100021.06
2022-11-23T19:08:42.156Z,100021.22
2022-11-23T19:11:19.100Z,100026.38
2022-11-23T19:13:47.978Z,100021.06
2022-11-23T19:16:17.004Z,100028.19
2022-11-23T19:18:43.508Z,100022.19
2022-11-23T19:21:19.751Z,100036.16
2022-11-23T19:23:51.226Z,100044.09
2022-11-23T19:26:18.282Z,100037.97
2022-11-23T19:28:45.330Z,100034.59
2022-11-23T19:31:17.270Z,100038.41
2022-11-23T19:33:45.447Z,100040.22
2022-11-23T19:36:18.006Z,100048.31
2022-11-23T19:38:44.755Z,100047.88
2022-11-23T19:41:12.177Z,100036.56
2022-11-23T19:43:38.828Z,100037.66
2022-11-23T19:46:07.204Z,100043.66
2022-11-23T19:48:34.333Z,100032.47
2022-11-23T19:51:06.178Z,100031.50
2022-11-23T19:53:35.556Z,100033.59
2022-11-23T19:56:19.523Z,100037.19
2022-11-23T19:58:46.667Z,100043.06
2022-11-23T20:01:15.404Z,100040.69
2022-11-23T20:03:44.883Z,100048.06
2022-11-23T20:06:14.550Z,100049.03
2022-11-23T20:08:41.529Z,100051.81
2022-11-23T20:11:09.820Z,100048.44
2022-11-23T20:13:36.799Z,100052.06
2022-11-23T20:16:09.157Z,100047.78
2022-11-23T20:18:35.624Z,100049.84
2022-11-23T20:21:02.213Z,100048.28
2022-11-23T20:23:29.473Z,100045.75
2022-11-23T20:25:58.687Z,100049.91
2022-11-23T20:28:25.908Z,100049.38
2022-11-23T20:30:52.476Z,100054.09
2022-11-23T20:33:19.903Z,100058.81
2022-11-23T20:35:47.387Z,100059.34
2022-11-23T20:38:14.575Z,100046.16
2022-11-23T20:40:41.200Z,100065.66
2022-11-23T20:43:07.573Z,100061.63
2022-11-23T20:45:33.964Z,100072.47
2022-11-23T20:48:00.458Z,100071.16
2022-11-23T20:50:30.256Z,100080.66
2022-11-23T20:53:01.955Z,100074.41
2022-11-23T20:55:28.733Z,100069.13
2022-11-23T20:57:55.183Z,100067.19
2022-11-23T21:00:22.566Z,100072.47
2022-11-23T21:02:53.166Z,100058.63
2022-11-23T21:05:20.520Z,100079.88
2022-11-23T21:07:48.396Z,100081.44
2022-11-23T21:10:34.118Z,100072.94
2022-11-23T21:13:19.700Z,100085.00
2022-11-23T21:15:46.727Z,100090.47
2022-11-23T21:18:13.966Z,100076.13
2022-11-23T21:20:41.207Z,100082.28
2022-11-23T21:23:07.688Z,100078.16
2022-11-23T21:25:35.483Z,100089.03
2022-11-23T21:28:03.256Z,100088.38
2022-11-23T21:30:30.754Z,100093.97
2022-11-23T21:32:57.494Z,100094.41
2022-11-23T21:35:24.178Z,100101.84
2022-11-23T21:37:50.638Z,100096.13
2022-11-23T21:40:17.113Z,100091.97
2022-11-23T21:42:44.680Z,100097.00
2022-11-23T21:45:11.255Z,100099.41
2022-11-23T21:47:37.656Z,100095.19
2022-11-23T21:50:04.817Z,100108.91
2022-11-23T21:52:31.188Z,100108.78
2022-11-23T21:54:57.573Z,100110.03
2022-11-23T21:57:24.000Z,100119.38
2022-11-23T21:59:50.439Z,100113.25
2022-11-23T22:02:17.003Z,100110.06
2022-11-23T22:04:43.575Z,100106.69
2022-11-23T22:07:10.199Z,100113.53
2022-11-23T22:09:37.964Z,100128.75
2022-11-23T22:12:04.644Z,100129.47
2022-11-23T22:14:31.814Z,100128.38
2022-11-23T22:16:58.519Z,100132.56
2022-11-23T22:19:25.011Z,100133.41
2022-11-23T22:21:51.588Z,100134.06
2022-11-23T22:24:19.730Z,100143.59
2022-11-23T22:26:47.590Z,100133.09
2022-11-23T22:29:14.464Z,100135.75
2022-11-23T22:31:41.317Z,100131.41
2022-11-23T22:34:11.370Z,100151.97
2022-11-23T22:36:37.960Z,100149.06
2022-11-23T22:39:06.482Z,100146.41
2022-11-23T22:41:37.912Z,100147.25
2022-11-23T22:44:06.659Z,100146.13
2022-11-23T22:46:33.362Z,100147.94
2022-11-23T22:49:00.085Z,100142.78
2022-11-23T22:51:28.843Z,100126.69
2022-11-23T22:53:57.328Z,100150.03
2022-11-23T22:56:24.613Z,100152.69
2022-11-23T22:58:51.150Z,100157.72
2022-11-23T23:01:20.585Z,100161.34
2022-11-23T23:03:47.258Z,100155.78
2022-11-23T23:06:19.303Z,100153.53
2022-11-23T23:08:47.361Z,100167.22
2022-11-23T23:11:15.108Z,100165.28
2022-11-23T23:13:44.817Z,100157.19
2022-11-23T23:16:13.413Z,100157.03
2022-11-23T23:18:43.460Z,100158.56
2022-11-23T23:21:15.430Z,100158.28
2022-11-23T23:23:44.526Z,100155.06
2022-11-23T23:26:12.445Z,100161.06
2022-11-23T23:28:39.234Z,100162.47
2022-11-23T23:31:08.557Z,100169.47
2022-11-23T23:33:35.487Z,100161.38
2022-11-23T23:36:14.055Z,100161.22
2022-11-23T23:38:43.393Z,100166.53
2022-11-23T23:41:11.421Z,100153.81
2022-11-23T23:43:38.472Z,100158.00
2022-11-23T23:46:08.074Z,100177.28
2022-11-23T23:48:36.278Z,100171.16
2022-11-23T23:51:23.827Z,100174.50
2022-11-23T23:53:51.537Z,100176.72
2022-11-23T23:56:28.763Z,100176.88
2022-11-23T23:58:57.121Z,100184.00
